sensor_id;sensor_type;location;lat;lon;timestamp;pressure;altitude;pressure_sealevel;temperature;humidity
70053;BME280;57398;52.032;4.376;2023-05-08T00:01:04;101855.03;;;11.60;100.00
70053;BME280;57398;52.032;4.376;2023-05-08T00:03:52;101851.41;;;11.61;100.00
70053;BME280;57398;52.032;4.376;2023-05-08T00:06:41;101847.63;;;11.64;100.00
70053;BME280;57398;52.032;4.376;2023-05-08T00:09:29;101848.22;;;11.66;100.00
70053;BME280;57398;52.032;4.376;2023-05-08T00:12:18;101845.22;;;11.62;100.00
70053;BME280;57398;52.032;4.376;2023-05-08T00:15:08;101846.22;;;11.55;100.00
70053;BME280;57398;52.032;4.376;2023-05-08T00:17:56;101850.59;;;11.47;100.00
70053;BME280;57398;52.032;4.376;2023-05-08T00:20:44;101853.22;;;11.41;100.00
70053;BME280;57398;52.032;4.376;2023-05-08T00:23:32;101853.81;;;11.36;100.00
70053;BME280;57398;52.032;4.376;2023-05-08T00:26:21;101850.63;;;11.34;100.00
70053;BME280;57398;52.032;4.376;2023-05-08T00:29:10;101857.22;;;11.30;100.00
70053;BME280;57398;52.032;4.376;2023-05-08T00:31:59;101858.38;;;11.21;100.00
70053;BME280;57398;52.032;4.376;2023-05-08T00:34:47;101862.59;;;11.22;100.00
70053;BME280;57398;52.032;4.376;2023-05-08T00:37:35;101866.78;;;11.16;100.00
70053;BME280;57398;52.032;4.376;2023-05-08T00:40:26;101863.16;;;11.10;100.00
70053;BME280;57398;52.032;4.376;2023-05-08T00:43:14;101862.53;;;11.08;100.00
70053;BME280;57398;52.032;4.376;2023-05-08T00:46:04;101870.53;;;11.00;100.00
70053;BME280;57398;52.032;4.376;2023-05-08T00:48:52;101868.53;;;10.96;100.00
70053;BME280;57398;52.032;4.376;2023-05-08T00:51:42;101863.94;;;10.98;100.00
70053;BME280;57398;52.032;4.376;2023-05-08T00:54:30;101859.38;;;11.06;100.00
70053;BME280;57398;52.032;4.376;2023-05-08T00:57:20;101865.34;;;11.00;100.00
70053;BME280;57398;52.032;4.376;2023-05-08T01:00:09;101867.31;;;10.92;100.00
70053;BME280;57398;52.032;4.376;2023-05-08T01:03:00;101868.34;;;10.97;100.00
70053;BME280;57398;52.032;4.376;2023-05-08T01:05:48;101872.75;;;11.03;100.00
70053;BME280;57398;52.032;4.376;2023-05-08T01:08:36;101867.72;;;10.95;100.00
70053;BME280;57398;52.032;4.376;2023-05-08T01:11:28;101866.88;;;10.88;100.00
70053;BME280;57398;52.032;4.376;2023-05-08T01:14:20;101871.06;;;10.82;100.00
70053;BME280;57398;52.032;4.376;2023-05-08T01:17:10;101866.44;;;10.78;100.00
70053;BME280;57398;52.032;4.376;2023-05-08T01:20:09;101874.66;;;10.75;100.00
70053;BME280;57398;52.032;4.376;2023-05-08T01:23:27;101870.00;;;10.63;100.00
70053;BME280;57398;52.032;4.376;2023-05-08T01:30:10;101876.75;;;10.58;100.00
70053;BME280;57398;52.032;4.376;2023-05-08T01:33:09;101885.16;;;10.60;100.00
70053;BME280;57398;52.032;4.376;2023-05-08T01:36:10;101880.97;;;10.59;100.00
70053;BME280;57398;52.032;4.376;2023-05-08T01:39:12;101880.31;;;10.50;100.00
70053;BME280;57398;52.032;4.376;2023-05-08T01:42:06;101881.31;;;10.49;100.00
70053;BME280;57398;52.032;4.376;2023-05-08T01:44:58;101882.31;;;10.48;100.00
70053;BME280;57398;52.032;4.376;2023-05-08T01:47:55;101889.22;;;10.34;100.00
70053;BME280;57398;52.032;4.376;2023-05-08T01:50:54;101885.44;;;10.37;100.00
70053;BME280;57398;52.032;4.376;2023-05-08T01:53:46;101890.22;;;10.33;100.00
70053;BME280;57398;52.032;4.376;2023-05-08T01:56:36;101890.94;;;10.27;100.00
70053;BME280;57398;52.032;4.376;2023-05-08T01:59:26;101890.78;;;10.29;100.00
70053;BME280;57398;52.032;4.376;2023-05-08T02:02:16;101897.94;;;10.26;100.00
70053;BME280;57398;52.032;4.376;2023-05-08T02:05:07;101898.28;;;10.23;100.00
70053;BME280;57398;52.032;4.376;2023-05-08T02:07:57;101899.72;;;10.26;100.00
70053;BME280;57398;52.032;4.376;2023-05-08T02:10:47;101913.88;;;10.23;100.00
70053;BME280;57398;52.032;4.376;2023-05-08T02:13:37;101898.69;;;10.20;100.00
70053;BME280;57398;52.032;4.376;2023-05-08T02:16:26;101905.00;;;10.11;100.00
70053;BME280;57398;52.032;4.376;2023-05-08T02:19:15;101902.75;;;10.01;100.00
70053;BME280;57398;52.032;4.376;2023-05-08T02:22:06;101895.13;;;10.00;100.00
70053;BME280;57398;52.032;4.376;2023-05-08T02:24:57;101903.94;;;10.05;100.00
70053;BME280;57398;52.032;4.376;2023-05-08T02:27:47;101905.34;;;10.01;100.00
70053;BME280;57398;52.032;4.376;2023-05-08T02:30:37;101909.13;;;9.99;100.00
70053;BME280;57398;52.032;4.376;2023-05-08T02:33:26;101906.88;;;9.96;100.00
70053;BME280;57398;52.032;4.376;2023-05-08T02:36:17;101907.09;;;9.94;100.00
70053;BME280;57398;52.032;4.376;2023-05-08T02:39:07;101909.69;;;9.94;100.00
70053;BME280;57398;52.032;4.376;2023-05-08T02:41:59;101911.28;;;9.95;100.00
70053;BME280;57398;52.032;4.376;2023-05-08T02:44:48;101908.34;;;10.05;100.00
70053;BME280;57398;52.032;4.376;2023-05-08T02:47:42;101901.97;;;10.07;100.00
70053;BME280;57398;52.032;4.376;2023-05-08T02:50:37;101902.84;;;10.15;100.00
70053;BME280;57398;52.032;4.376;2023-05-08T02:53:33;101898.19;;;10.32;100.00
70053;BME280;57398;52.032;4.376;2023-05-08T02:56:30;101902.25;;;10.41;100.00
70053;BME280;57398;52.032;4.376;2023-05-08T02:59:26;101906.28;;;10.50;100.00
70053;BME280;57398;52.032;4.376;2023-05-08T03:02:19;101898.38;;;10.58;100.00
70053;BME280;57398;52.032;4.376;2023-05-08T03:05:13;101893.38;;;10.63;100.00
70053;BME280;57398;52.032;4.376;2023-05-08T03:08:06;101889.84;;;10.78;100.00
70053;BME280;57398;52.032;4.376;2023-05-08T03:10:58;101887.09;;;10.86;100.00
70053;BME280;57398;52.032;4.376;2023-05-08T03:13:48;101885.50;;;10.92;100.00
70053;BME280;57398;52.032;4.376;2023-05-08T03:16:42;101877.66;;;10.85;100.00
70053;BME280;57398;52.032;4.376;2023-05-08T03:19:33;101864.69;;;10.85;100.00
70053;BME280;57398;52.032;4.376;2023-05-08T03:22:23;101858.06;;;10.82;100.00
70053;BME280;57398;52.032;4.376;2023-05-08T03:25:15;101845.06;;;10.82;100.00
70053;BME280;57398;52.032;4.376;2023-05-08T03:28:04;101842.91;;;10.86;100.00
70053;BME280;57398;52.032;4.376;2023-05-08T03:30:53;101836.88;;;10.85;100.00
70053;BME280;57398;52.032;4.376;2023-05-08T03:33:44;101837.72;;;10.86;100.00
70053;BME280;57398;52.032;4.376;2023-05-08T03:36:33;101842.31;;;10.90;100.00
70053;BME280;57398;52.032;4.376;2023-05-08T03:39:21;101847.91;;;10.94;100.00
70053;BME280;57398;52.032;4.376;2023-05-08T03:42:10;101857.34;;;10.95;100.00
70053;BME280;57398;52.032;4.376;2023-05-08T03:45:08;101843.31;;;10.96;100.00
70053;BME280;57398;52.032;4.376;2023-05-08T03:47:58;101848.53;;;10.96;100.00
70053;BME280;57398;52.032;4.376;2023-05-08T03:50:49;101865.16;;;11.02;100.00
70053;BME280;57398;52.032;4.376;2023-05-08T03:53:37;101864.94;;;11.03;100.00
70053;BME280;57398;52.032;4.376;2023-05-08T03:56:26;101857.75;;;11.05;100.00
70053;BME280;57398;52.032;4.376;2023-05-08T03:59:20;101856.16;;;11.04;100.00
70053;BME280;57398;52.032;4.376;2023-05-08T04:02:17;101866.56;;;11.04;100.00
70053;BME280;57398;52.032;4.376;2023-05-08T04:05:13;101865.53;;;11.05;100.00
70053;BME280;57398;52.032;4.376;2023-05-08T04:08:08;101867.16;;;11.06;100.00
70053;BME280;57398;52.032;4.376;2023-05-08T04:11:08;101869.75;;;11.06;100.00
70053;BME280;57398;52.032;4.376;2023-05-08T04:14:02;101877.56;;;11.06;100.00
70053;BME280;57398;52.032;4.376;2023-05-08T04:16:52;101868.16;;;11.05;100.00
70053;BME280;57398;52.032;4.376;2023-05-08T04:19:45;101868.16;;;11.05;100.00
70053;BME280;57398;52.032;4.376;2023-05-08T04:22:39;101878.34;;;11.00;100.00
70053;BME280;57398;52.032;4.376;2023-05-08T04:25:31;101883.13;;;11.03;100.00
70053;BME280;57398;52.032;4.376;2023-05-08T04:28:22;101888.56;;;11.02;100.00
70053;BME280;57398;52.032;4.376;2023-05-08T04:31:10;101887.34;;;11.04;100.00
70053;BME280;57398;52.032;4.376;2023-05-08T04:34:01;101886.38;;;11.12;100.00
70053;BME280;57398;52.032;4.376;2023-05-08T04:36:49;101892.38;;;11.19;100.00
70053;BME280;57398;52.032;4.376;2023-05-08T04:39:38;101886.41;;;11.25;100.00
70053;BME280;57398;52.032;4.376;2023-05-08T04:42:30;101887.44;;;11.44;100.00
70053;BME280;57398;52.032;4.376;2023-05-08T04:45:19;101945.31;;;11.53;100.00
70053;BME280;57398;52.032;4.376;2023-05-08T04:48:07;101953.91;;;11.60;100.00
70053;BME280;57398;52.032;4.376;2023-05-08T04:50:55;101962.34;;;11.62;100.00
70053;BME280;57398;52.032;4.376;2023-05-08T04:53:43;101968.34;;;11.69;100.00
70053;BME280;57398;52.032;4.376;2023-05-08T04:56:31;101972.34;;;11.72;100.00
70053;BME280;57398;52.032;4.376;2023-05-08T04:59:21;101983.19;;;11.76;100.00
70053;BME280;57398;52.032;4.376;2023-05-08T05:02:10;101996.00;;;11.77;100.00
70053;BME280;57398;52.032;4.376;2023-05-08T05:04:58;101998.22;;;11.87;100.00
70053;BME280;57398;52.032;4.376;2023-05-08T05:07:47;102008.09;;;11.98;100.00
70053;BME280;57398;52.032;4.376;2023-05-08T05:10:37;102009.28;;;11.95;100.00
70053;BME280;57398;52.032;4.376;2023-05-08T05:13:24;102039.91;;;12.00;100.00
70053;BME280;57398;52.032;4.376;2023-05-08T05:16:14;102042.94;;;11.97;100.00
70053;BME280;57398;52.032;4.376;2023-05-08T05:19:02;102039.72;;;12.02;100.00
70053;BME280;57398;52.032;4.376;2023-05-08T05:21:51;102052.38;;;12.11;100.00
70053;BME280;57398;52.032;4.376;2023-05-08T05:24:39;102057.78;;;12.10;100.00
70053;BME280;57398;52.032;4.376;2023-05-08T05:27:27;102060.78;;;12.13;100.00
70053;BME280;57398;52.032;4.376;2023-05-08T05:30:16;102065.22;;;12.20;100.00
70053;BME280;57398;52.032;4.376;2023-05-08T05:33:05;102060.63;;;12.28;100.00
70053;BME280;57398;52.032;4.376;2023-05-08T05:35:53;102076.63;;;12.25;100.00
70053;BME280;57398;52.032;4.376;2023-05-08T05:38:41;102085.28;;;12.32;100.00
70053;BME280;57398;52.032;4.376;2023-05-08T05:41:29;102089.47;;;12.27;100.00
70053;BME280;57398;52.032;4.376;2023-05-08T05:44:17;102088.28;;;12.36;100.00
70053;BME280;57398;52.032;4.376;2023-05-08T05:47:05;102093.28;;;12.38;100.00
70053;BME280;57398;52.032;4.376;2023-05-08T05:49:57;102095.69;;;12.39;100.00
70053;BME280;57398;52.032;4.376;2023-05-08T05:52:45;102102.69;;;12.39;100.00
70053;BME280;57398;52.032;4.376;2023-05-08T05:55:33;102100.88;;;12.39;100.00
70053;BME280;57398;52.032;4.376;2023-05-08T05:58:21;102108.34;;;12.42;100.00
70053;BME280;57398;52.032;4.376;2023-05-08T06:01:09;102118.75;;;12.35;100.00
70053;BME280;57398;52.032;4.376;2023-05-08T06:03:57;102114.50;;;12.34;100.00
70053;BME280;57398;52.032;4.376;2023-05-08T06:06:47;102125.19;;;12.46;100.00
70053;BME280;57398;52.032;4.376;2023-05-08T06:09:35;102116.53;;;12.52;100.00
70053;BME280;57398;52.032;4.376;2023-05-08T06:12:23;102125.38;;;12.65;100.00
70053;BME280;57398;52.032;4.376;2023-05-08T06:15:11;102136.00;;;12.70;100.00
70053;BME280;57398;52.032;4.376;2023-05-08T06:18:01;102137.00;;;12.75;100.00
70053;BME280;57398;52.032;4.376;2023-05-08T06:20:55;102139.00;;;12.80;100.00
70053;BME280;57398;52.032;4.376;2023-05-08T06:23:45;102136.22;;;12.68;100.00
70053;BME280;57398;52.032;4.376;2023-05-08T06:26:34;102155.06;;;12.70;100.00
70053;BME280;57398;52.032;4.376;2023-05-08T06:29:22;102152.88;;;12.67;100.00
70053;BME280;57398;52.032;4.376;2023-05-08T06:32:10;102164.09;;;12.68;100.00
70053;BME280;57398;52.032;4.376;2023-05-08T06:34:59;102161.69;;;12.79;100.00
70053;BME280;57398;52.032;4.376;2023-05-08T06:37:47;102174.13;;;12.84;100.00
70053;BME280;57398;52.032;4.376;2023-05-08T06:40:40;102175.72;;;12.65;100.00
70053;BME280;57398;52.032;4.376;2023-05-08T06:43:28;102169.50;;;12.79;100.00
70053;BME280;57398;52.032;4.376;2023-05-08T06:46:16;102172.13;;;12.86;100.00
70053;BME280;57398;52.032;4.376;2023-05-08T06:49:05;102180.75;;;13.13;100.00
70053;BME280;57398;52.032;4.376;2023-05-08T06:51:53;102174.13;;;13.17;100.00
70053;BME280;57398;52.032;4.376;2023-05-08T06:54:43;102175.91;;;13.24;100.00
70053;BME280;57398;52.032;4.376;2023-05-08T06:57:33;102172.69;;;13.21;100.00
70053;BME280;57398;52.032;4.376;2023-05-08T07:00:22;102168.50;;;13.40;100.00
70053;BME280;57398;52.032;4.376;2023-05-08T07:03:11;102167.66;;;13.53;100.00
70053;BME280;57398;52.032;4.376;2023-05-08T07:05:59;102162.63;;;13.58;100.00
70053;BME280;57398;52.032;4.376;2023-05-08T07:08:47;102162.84;;;13.50;100.00
70053;BME280;57398;52.032;4.376;2023-05-08T07:11:35;102145.53;;;13.62;100.00
70053;BME280;57398;52.032;4.376;2023-05-08T07:14:24;102140.88;;;13.71;100.00
70053;BME280;57398;52.032;4.376;2023-05-08T07:17:13;102129.78;;;13.82;100.00
70053;BME280;57398;52.032;4.376;2023-05-08T07:20:01;102120.97;;;13.83;100.00
70053;BME280;57398;52.032;4.376;2023-05-08T07:22:49;102120.47;;;14.00;100.00
70053;BME280;57398;52.032;4.376;2023-05-08T07:25:37;102105.25;;;14.22;100.00
70053;BME280;57398;52.032;4.376;2023-05-08T07:28:25;102112.88;;;14.23;100.00
70053;BME280;57398;52.032;4.376;2023-05-08T07:31:15;102103.94;;;14.38;100.00
70053;BME280;57398;52.032;4.376;2023-05-08T07:34:03;102104.03;;;14.50;100.00
70053;BME280;57398;52.032;4.376;2023-05-08T07:36:53;102100.50;;;14.69;100.00
70053;BME280;57398;52.032;4.376;2023-05-08T07:39:41;102084.94;;;14.99;100.00
70053;BME280;57398;52.032;4.376;2023-05-08T07:42:29;102087.59;;;14.93;100.00
70053;BME280;57398;52.032;4.376;2023-05-08T07:45:17;102085.16;;;15.16;100.00
70053;BME280;57398;52.032;4.376;2023-05-08T07:48:07;102082.97;;;15.13;100.00
70053;BME280;57398;52.032;4.376;2023-05-08T07:50:55;102092.13;;;15.22;100.00
70053;BME280;57398;52.032;4.376;2023-05-08T07:53:43;102050.31;;;15.34;100.00
70053;BME280;57398;52.032;4.376;2023-05-08T07:56:31;102061.75;;;15.21;100.00
70053;BME280;57398;52.032;4.376;2023-05-08T07:59:19;102065.88;;;15.29;100.00
70053;BME280;57398;52.032;4.376;2023-05-08T08:02:07;102069.88;;;15.32;100.00
70053;BME280;57398;52.032;4.376;2023-05-08T08:04:57;102086.38;;;15.32;100.00
70053;BME280;57398;52.032;4.376;2023-05-08T08:07:45;102098.34;;;15.28;100.00
70053;BME280;57398;52.032;4.376;2023-05-08T08:10:33;102098.97;;;15.23;100.00
70053;BME280;57398;52.032;4.376;2023-05-08T08:13:21;102103.06;;;15.38;100.00
70053;BME280;57398;52.032;4.376;2023-05-08T08:16:09;102112.78;;;15.49;100.00
70053;BME280;57398;52.032;4.376;2023-05-08T08:18:57;102120.41;;;15.50;100.00
70053;BME280;57398;52.032;4.376;2023-05-08T08:21:46;102125.22;;;15.54;100.00
70053;BME280;57398;52.032;4.376;2023-05-08T08:24:34;102138.75;;;15.32;100.00
70053;BME280;57398;52.032;4.376;2023-05-08T08:27:22;102129.72;;;15.65;100.00
70053;BME280;57398;52.032;4.376;2023-05-08T08:30:11;102127.25;;;15.70;100.00
70053;BME280;57398;52.032;4.376;2023-05-08T08:33:04;102134.50;;;15.86;100.00
70053;BME280;57398;52.032;4.376;2023-05-08T08:35:52;102133.75;;;15.98;100.00
70053;BME280;57398;52.032;4.376;2023-05-08T08:38:41;102143.53;;;16.21;100.00
70053;BME280;57398;52.032;4.376;2023-05-08T08:41:29;102151.38;;;16.21;100.00
70053;BME280;57398;52.032;4.376;2023-05-08T08:44:17;102149.28;;;16.41;100.00
70053;BME280;57398;52.032;4.376;2023-05-08T08:47:05;102159.34;;;16.56;100.00
70053;BME280;57398;52.032;4.376;2023-05-08T08:49:59;102171.44;;;16.69;100.00
70053;BME280;57398;52.032;4.376;2023-05-08T08:52:54;102175.16;;;17.03;100.00
70053;BME280;57398;52.032;4.376;2023-05-08T08:55:45;102205.16;;;16.84;100.00
70053;BME280;57398;52.032;4.376;2023-05-08T08:58:43;102216.56;;;16.89;100.00
70053;BME280;57398;52.032;4.376;2023-05-08T09:01:38;102232.13;;;17.03;100.00
70053;BME280;57398;52.032;4.376;2023-05-08T09:04:26;102244.66;;;17.01;100.00
70053;BME280;57398;52.032;4.376;2023-05-08T09:07:16;102261.06;;;16.84;100.00
70053;BME280;57398;52.032;4.376;2023-05-08T09:10:05;102253.63;;;16.81;100.00
70053;BME280;57398;52.032;4.376;2023-05-08T09:12:55;102254.63;;;16.68;100.00
70053;BME280;57398;52.032;4.376;2023-05-08T09:15:43;102248.19;;;17.06;100.00
70053;BME280;57398;52.032;4.376;2023-05-08T09:18:31;102276.16;;;17.01;100.00
70053;BME280;57398;52.032;4.376;2023-05-08T09:21:20;102273.91;;;17.16;100.00
70053;BME280;57398;52.032;4.376;2023-05-08T09:24:09;102295.50;;;17.18;100.00
70053;BME280;57398;52.032;4.376;2023-05-08T09:26:57;102285.78;;;17.42;100.00
70053;BME280;57398;52.032;4.376;2023-05-08T09:29:57;102293.44;;;17.44;100.00
70053;BME280;57398;52.032;4.376;2023-05-08T09:32:46;102295.94;;;17.15;100.00
70053;BME280;57398;52.032;4.376;2023-05-08T09:35:34;102297.44;;;17.34;100.00
70053;BME280;57398;52.032;4.376;2023-05-08T09:38:31;102310.13;;;17.37;100.00
70053;BME280;57398;52.032;4.376;2023-05-08T09:41:19;102313.41;;;17.68;100.00
70053;BME280;57398;52.032;4.376;2023-05-08T09:44:09;102314.66;;;18.13;100.00
70053;BME280;57398;52.032;4.376;2023-05-08T09:47:10;102339.47;;;17.93;100.00
70053;BME280;57398;52.032;4.376;2023-05-08T09:50:00;102344.19;;;18.03;100.00
70053;BME280;57398;52.032;4.376;2023-05-08T09:52:48;102339.69;;;18.15;100.00
70053;BME280;57398;52.032;4.376;2023-05-08T09:55:46;102346.66;;;18.50;100.00
70053;BME280;57398;52.032;4.376;2023-05-08T09:58:37;102362.00;;;18.53;100.00
70053;BME280;57398;52.032;4.376;2023-05-08T10:01:27;102395.22;;;18.42;100.00
70053;BME280;57398;52.032;4.376;2023-05-08T10:04:18;102386.41;;;18.49;100.00
70053;BME280;57398;52.032;4.376;2023-05-08T10:07:26;102396.13;;;19.05;100.00
70053;BME280;57398;52.032;4.376;2023-05-08T10:10:21;102411.91;;;19.68;100.00
70053;BME280;57398;52.032;4.376;2023-05-08T10:13:10;102445.22;;;19.57;100.00
70053;BME280;57398;52.032;4.376;2023-05-08T10:15:58;102475.44;;;18.92;100.00
70053;BME280;57398;52.032;4.376;2023-05-08T10:18:48;102465.50;;;18.71;100.00
70053;BME280;57398;52.032;4.376;2023-05-08T10:21:40;102455.09;;;19.33;100.00
70053;BME280;57398;52.032;4.376;2023-05-08T10:24:32;102479.41;;;19.52;100.00
70053;BME280;57398;52.032;4.376;2023-05-08T10:27:29;102478.19;;;19.43;100.00
70053;BME280;57398;52.032;4.376;2023-05-08T10:30:23;102507.19;;;19.88;100.00
70053;BME280;57398;52.032;4.376;2023-05-08T10:33:13;102515.44;;;19.18;100.00
70053;BME280;57398;52.032;4.376;2023-05-08T10:36:04;102476.66;;;19.30;100.00
70053;BME280;57398;52.032;4.376;2023-05-08T10:38:56;102461.19;;;19.51;100.00
70053;BME280;57398;52.032;4.376;2023-05-08T10:41:46;102488.88;;;19.08;100.00
70053;BME280;57398;52.032;4.376;2023-05-08T10:44:35;102460.97;;;19.07;100.00
70053;BME280;57398;52.032;4.376;2023-05-08T10:47:29;102438.03;;;19.53;100.00
70053;BME280;57398;52.032;4.376;2023-05-08T10:50:48;102455.25;;;19.27;100.00
70053;BME280;57398;52.032;4.376;2023-05-08T10:53:41;102459.72;;;18.97;100.00
70053;BME280;57398;52.032;4.376;2023-05-08T10:56:32;102474.19;;;18.71;100.00
70053;BME280;57398;52.032;4.376;2023-05-08T10:59:24;102443.84;;;18.92;100.00
70053;BME280;57398;52.032;4.376;2023-05-08T11:02:13;102448.38;;;19.25;100.00
70053;BME280;57398;52.032;4.376;2023-05-08T11:05:14;102479.56;;;19.17;100.00
70053;BME280;57398;52.032;4.376;2023-05-08T11:08:13;102473.41;;;18.71;100.00
70053;BME280;57398;52.032;4.376;2023-05-08T11:11:04;102455.16;;;19.21;100.00
70053;BME280;57398;52.032;4.376;2023-05-08T11:14:12;102456.13;;;19.32;100.00
70053;BME280;57398;52.032;4.376;2023-05-08T11:17:08;102450.72;;;19.39;100.00
70053;BME280;57398;52.032;4.376;2023-05-08T11:19:58;102450.22;;;19.42;100.00
70053;BME280;57398;52.032;4.376;2023-05-08T11:22:46;102458.44;;;19.29;100.00
70053;BME280;57398;52.032;4.376;2023-05-08T11:25:41;102438.03;;;19.36;100.00
70053;BME280;57398;52.032;4.376;2023-05-08T11:28:31;102452.41;;;19.45;100.00
70053;BME280;57398;52.032;4.376;2023-05-08T11:31:22;102468.47;;;19.15;100.00
70053;BME280;57398;52.032;4.376;2023-05-08T11:34:43;102462.31;;;19.38;100.00
70053;BME280;57398;52.032;4.376;2023-05-08T11:37:31;102468.38;;;19.38;100.00
70053;BME280;57398;52.032;4.376;2023-05-08T11:40:44;102468.56;;;19.65;100.00
70053;BME280;57398;52.032;4.376;2023-05-08T11:46:56;102498.66;;;19.53;100.00
70053;BME280;57398;52.032;4.376;2023-05-08T11:49:45;102473.66;;;19.38;100.00
70053;BME280;57398;52.032;4.376;2023-05-08T11:52:34;102466.41;;;18.88;100.00
70053;BME280;57398;52.032;4.376;2023-05-08T11:55:23;102432.25;;;19.22;100.00
70053;BME280;57398;52.032;4.376;2023-05-08T11:58:11;102428.44;;;19.46;100.00
70053;BME280;57398;52.032;4.376;2023-05-08T12:00:59;102447.59;;;19.25;100.00
70053;BME280;57398;52.032;4.376;2023-05-08T12:03:58;102434.69;;;19.57;100.00
70053;BME280;57398;52.032;4.376;2023-05-08T12:06:48;102450.50;;;19.57;100.00
70053;BME280;57398;52.032;4.376;2023-05-08T12:09:37;102458.47;;;19.45;100.00
70053;BME280;57398;52.032;4.376;2023-05-08T12:12:35;102458.84;;;19.37;100.00
70053;BME280;57398;52.032;4.376;2023-05-08T12:15:23;102453.84;;;19.53;100.00
70053;BME280;57398;52.032;4.376;2023-05-08T12:18:11;102457.03;;;19.38;100.00
70053;BME280;57398;52.032;4.376;2023-05-08T12:21:00;102443.16;;;19.42;100.00
70053;BME280;57398;52.032;4.376;2023-05-08T12:23:49;102435.25;;;19.93;100.00
70053;BME280;57398;52.032;4.376;2023-05-08T12:26:37;102461.38;;;19.95;100.00
70053;BME280;57398;52.032;4.376;2023-05-08T12:29:25;102474.94;;;19.53;100.00
70053;BME280;57398;52.032;4.376;2023-05-08T12:32:13;102450.50;;;19.57;100.00
70053;BME280;57398;52.032;4.376;2023-05-08T12:35:01;102471.81;;;19.56;100.00
70053;BME280;57398;52.032;4.376;2023-05-08T12:37:51;102470.59;;;19.30;100.00
70053;BME280;57398;52.032;4.376;2023-05-08T12:40:40;102462.03;;;18.94;100.00
70053;BME280;57398;52.032;4.376;2023-05-08T12:43:33;102434.19;;;18.98;100.00
70053;BME280;57398;52.032;4.376;2023-05-08T12:46:21;102433.09;;;18.82;100.00
70053;BME280;57398;52.032;4.376;2023-05-08T12:49:09;102424.56;;;19.03;100.00
70053;BME280;57398;52.032;4.376;2023-05-08T12:52:02;102426.28;;;18.98;100.00
70053;BME280;57398;52.032;4.376;2023-05-08T12:54:52;102425.56;;;18.86;100.00
70053;BME280;57398;52.032;4.376;2023-05-08T12:57:40;102416.47;;;18.93;100.00
70053;BME280;57398;52.032;4.376;2023-05-08T13:00:36;102432.41;;;18.75;100.00
70053;BME280;57398;52.032;4.376;2023-05-08T13:03:26;102428.00;;;18.63;100.00
70053;BME280;57398;52.032;4.376;2023-05-08T13:06:18;102406.56;;;18.83;100.00
70053;BME280;57398;52.032;4.376;2023-05-08T13:09:07;102407.91;;;18.86;100.00
70053;BME280;57398;52.032;4.376;2023-05-08T13:11:57;102405.31;;;18.74;100.00
70053;BME280;57398;52.032;4.376;2023-05-08T13:14:46;102401.66;;;18.63;100.00
70053;BME280;57398;52.032;4.376;2023-05-08T13:17:34;102406.72;;;18.01;100.00
70053;BME280;57398;52.032;4.376;2023-05-08T13:20:22;102392.06;;;18.05;100.00
70053;BME280;57398;52.032;4.376;2023-05-08T13:23:12;102375.16;;;18.01;100.00
70053;BME280;57398;52.032;4.376;2023-05-08T13:26:00;102371.47;;;17.78;100.00
70053;BME280;57398;52.032;4.376;2023-05-08T13:28:49;102357.31;;;17.56;100.00
70053;BME280;57398;52.032;4.376;2023-05-08T13:31:41;102341.78;;;17.66;100.00
70053;BME280;57398;52.032;4.376;2023-05-08T13:34:29;102339.16;;;17.66;100.00
70053;BME280;57398;52.032;4.376;2023-05-08T13:37:17;102334.91;;;17.77;100.00
70053;BME280;57398;52.032;4.376;2023-05-08T13:40:06;102336.84;;;17.70;100.00
70053;BME280;57398;52.032;4.376;2023-05-08T13:42:54;102348.47;;;17.27;100.00
70053;BME280;57398;52.032;4.376;2023-05-08T13:45:44;102325.75;;;17.32;100.00
70053;BME280;57398;52.032;4.376;2023-05-08T13:48:32;102326.66;;;17.14;100.00
70053;BME280;57398;52.032;4.376;2023-05-08T13:51:20;102308.38;;;17.20;100.00
70053;BME280;57398;52.032;4.376;2023-05-08T13:54:08;102308.28;;;17.26;100.00
70053;BME280;57398;52.032;4.376;2023-05-08T13:56:56;102305.66;;;17.26;100.00
70053;BME280;57398;52.032;4.376;2023-05-08T13:59:44;102293.34;;;17.38;100.00
70053;BME280;57398;52.032;4.376;2023-05-08T14:02:34;102298.91;;;17.07;100.00
70053;BME280;57398;52.032;4.376;2023-05-08T14:05:23;102298.34;;;17.16;100.00
70053;BME280;57398;52.032;4.376;2023-05-08T14:08:11;102289.31;;;17.24;100.00
70053;BME280;57398;52.032;4.376;2023-05-08T14:10:59;102291.34;;;17.10;100.00
70053;BME280;57398;52.032;4.376;2023-05-08T14:13:47;102285.56;;;17.55;100.00
70053;BME280;57398;52.032;4.376;2023-05-08T14:16:35;102286.31;;;17.79;100.00
70053;BME280;57398;52.032;4.376;2023-05-08T14:19:25;102289.19;;;17.78;100.00
70053;BME280;57398;52.032;4.376;2023-05-08T14:22:13;102290.00;;;17.90;100.00
70053;BME280;57398;52.032;4.376;2023-05-08T14:25:01;102301.88;;;17.69;100.00
70053;BME280;57398;52.032;4.376;2023-05-08T14:27:49;102299.25;;;17.69;100.00
70053;BME280;57398;52.032;4.376;2023-05-08T14:30:37;102310.25;;;17.66;100.00
70053;BME280;57398;52.032;4.376;2023-05-08T14:33:25;102310.34;;;17.71;100.00
70053;BME280;57398;52.032;4.376;2023-05-08T14:36:14;102323.25;;;17.49;100.00
70053;BME280;57398;52.032;4.376;2023-05-08T14:39:03;102313.53;;;17.38;100.00
70053;BME280;57398;52.032;4.376;2023-05-08T14:41:51;102310.91;;;17.26;100.00
70053;BME280;57398;52.032;4.376;2023-05-08T14:44:42;102309.75;;;17.34;100.00
70053;BME280;57398;52.032;4.376;2023-05-08T14:47:30;102295.50;;;17.30;100.00